Time;durP1;ratioP1;P1;durP2;ratioP2;P2;SDS_P1;SDS_P2;PMS_P1;PMS_P2;Temp;Humidity;BMP_temperature;BMP_pressure;BME280_temperature;BME280_humidity;BME280_pressure;Samples;Min_cycle;Max_cycle;Signal;HPM_P1;HPM_P2
2024/04/16 00:01:43;;;;;;;5.75;2.17;;;7.20;99.90;;;;;;5522897;25;19997;-33
2024/04/16 00:04:09;;;;;;;4.45;1.75;;;7.20;99.90;;;;;;5546031;25;19996;-35
2024/04/16 00:06:35;;;;;;;6.75;1.42;;;7.20;99.90;;;;;;5533974;25;20076;-35
2024/04/16 00:09:01;;;;;;;5.68;1.33;;;7.30;99.90;;;;;;5510854;25;20001;-36
2024/04/16 00:11:27;;;;;;;7.50;2.08;;;7.40;99.90;;;;;;5526305;25;20400;-37
2024/04/16 00:13:52;;;;;;;3.50;1.20;;;7.40;99.90;;;;;;5516115;25;20001;-36
2024/04/16 00:16:18;;;;;;;7.82;1.40;;;7.50;99.90;;;;;;5521660;25;20332;-38
2024/04/16 00:18:45;;;;;;;5.82;1.45;;;7.60;99.90;;;;;;5516750;25;20405;-37
2024/04/16 00:21:10;;;;;;;3.97;1.02;;;7.60;99.90;;;;;;5514518;25;20002;-37
2024/04/16 00:23:36;;;;;;;3.42;1.30;;;7.70;99.90;;;;;;5523303;25;20001;-37
2024/04/16 00:26:01;;;;;;;3.10;1.10;;;7.70;99.90;;;;;;5508836;25;20005;-34
2024/04/16 00:28:27;;;;;;;5.10;1.58;;;7.80;99.90;;;;;;5527015;25;20068;-37
2024/04/16 00:30:52;;;;;;;4.68;1.30;;;7.80;99.90;;;;;;5508771;25;20028;-37
2024/04/16 00:33:18;;;;;;;4.28;1.08;;;7.80;99.90;;;;;;5529054;25;20855;-36
2024/04/16 00:35:44;;;;;;;5.22;1.10;;;7.90;99.90;;;;;;5509809;25;20002;-36
2024/04/16 00:38:12;;;;;;;3.58;1.75;;;7.90;99.90;;;;;;5532204;25;20020;-35
2024/04/16 00:40:38;;;;;;;5.40;1.33;;;7.90;99.90;;;;;;5508383;26;20449;-37
2024/04/16 00:43:16;;;;;;;6.80;1.27;;;7.90;99.90;;;;;;5532317;25;19996;-36
2024/04/16 00:45:50;;;;;;;3.50;1.13;;;8.00;99.90;;;;;;5508185;25;20861;-38
2024/04/16 00:48:18;;;;;;;3.85;1.13;;;8.00;99.90;;;;;;5532527;25;19997;-36
2024/04/16 00:50:46;;;;;;;5.20;1.58;;;8.00;99.90;;;;;;5509267;26;19994;-38
2024/04/16 00:53:13;;;;;;;4.05;1.23;;;8.00;99.90;;;;;;5530921;25;20004;-38
2024/04/16 00:55:39;;;;;;;7.57;1.23;;;8.00;99.90;;;;;;5508897;25;19997;-37
2024/04/16 00:58:06;;;;;;;6.38;2.10;;;8.10;99.90;;;;;;5527377;25;20005;-37
2024/04/16 01:00:31;;;;;;;3.78;1.15;;;8.10;99.90;;;;;;5513597;25;20102;-38
2024/04/16 01:02:57;;;;;;;3.45;1.33;;;8.10;99.90;;;;;;5522741;25;20059;-36
2024/04/16 01:05:23;;;;;;;5.25;1.27;;;8.10;99.90;;;;;;5532662;25;20001;-37
2024/04/16 01:07:49;;;;;;;5.22;1.23;;;8.10;99.90;;;;;;5535819;25;20008;-36
2024/04/16 01:10:14;;;;;;;5.30;1.83;;;8.10;99.90;;;;;;5532345;25;19997;-38
2024/04/16 01:12:41;;;;;;;5.85;1.50;;;8.10;99.90;;;;;;5543898;25;20518;-36
2024/04/16 01:15:07;;;;;;;3.92;1.27;;;8.00;99.90;;;;;;5527242;25;20005;-36
2024/04/16 01:17:42;;;;;;;3.05;1.10;;;8.00;99.90;;;;;;5543869;25;20074;-37
2024/04/16 01:20:09;;;;;;;3.60;1.20;;;8.00;99.90;;;;;;5526216;25;20468;-36
2024/04/16 01:22:35;;;;;;;3.92;1.40;;;7.90;99.90;;;;;;5543284;25;20088;-37
2024/04/16 01:25:00;;;;;;;1.80;0.80;;;7.90;99.90;;;;;;5525295;25;20000;-38
2024/04/16 01:27:26;;;;;;;1.95;0.63;;;7.90;99.90;;;;;;5547367;25;20604;-37
2024/04/16 01:29:54;;;;;;;2.60;0.60;;;7.90;99.90;;;;;;5524860;25;20005;-37
2024/04/16 01:32:23;;;;;;;3.03;1.10;;;7.90;99.90;;;;;;5549638;25;20068;-38
2024/04/16 01:34:48;;;;;;;2.83;0.85;;;7.80;99.90;;;;;;5524937;25;20327;-37
2024/04/16 01:37:14;;;;;;;5.78;1.67;;;7.80;99.90;;;;;;5550191;25;20009;-37
2024/04/16 01:39:39;;;;;;;1.67;0.90;;;7.80;99.90;;;;;;5527452;25;20012;-39
2024/04/16 01:42:05;;;;;;;6.78;1.38;;;7.70;99.90;;;;;;5546396;25;19997;-38
2024/04/16 01:44:31;;;;;;;4.55;0.90;;;7.70;99.90;;;;;;5532518;25;20452;-38
2024/04/16 01:46:57;;;;;;;4.63;1.20;;;7.70;99.90;;;;;;5542469;25;19997;-38
2024/04/16 01:49:22;;;;;;;2.78;1.20;;;7.60;99.90;;;;;;5536915;25;20021;-38
2024/04/16 01:51:48;;;;;;;4.22;0.98;;;7.60;99.90;;;;;;5537428;25;19997;-39
2024/04/16 01:54:13;;;;;;;5.03;1.42;;;7.60;99.90;;;;;;5542735;25;20037;-36
2024/04/16 01:56:39;;;;;;;1.73;1.05;;;7.70;99.90;;;;;;5532158;25;20336;-38
2024/04/16 01:59:05;;;;;;;4.13;0.98;;;7.70;99.90;;;;;;5545397;25;20000;-36
2024/04/16 02:01:31;;;;;;;2.63;0.93;;;7.70;99.90;;;;;;5526647;25;20007;-40
2024/04/16 02:03:56;;;;;;;3.55;1.15;;;7.80;99.90;;;;;;5543930;25;20061;-35
2024/04/16 02:06:22;;;;;;;2.00;0.70;;;7.70;99.90;;;;;;5539260;25;20004;-37
2024/04/16 02:08:47;;;;;;;2.72;0.93;;;7.70;99.90;;;;;;5543867;25;19989;-37
2024/04/16 02:11:14;;;;;;;1.83;0.80;;;7.70;99.90;;;;;;5532297;25;20005;-37
2024/04/16 02:13:39;;;;;;;1.95;0.70;;;7.60;99.90;;;;;;5509229;26;20526;-38
2024/04/16 02:16:05;;;;;;;4.88;1.10;;;7.60;99.90;;;;;;5531878;25;19997;-35
2024/04/16 02:18:40;;;;;;;2.55;0.77;;;7.60;99.90;;;;;;5508090;26;20451;-39
2024/04/16 02:21:06;;;;;;;1.83;0.60;;;7.50;99.90;;;;;;5530039;25;20004;-36
2024/04/16 02:23:31;;;;;;;2.03;0.70;;;7.50;99.90;;;;;;5510764;25;20004;-38
2024/04/16 02:25:57;;;;;;;1.52;0.60;;;7.60;99.90;;;;;;5528023;25;20646;-36
2024/04/16 02:28:32;;;;;;;2.05;0.65;;;7.60;99.90;;;;;;5516963;25;19997;-37
2024/04/16 02:30:57;;;;;;;2.30;0.80;;;7.60;99.90;;;;;;5524360;25;19993;-36
2024/04/16 02:33:23;;;;;;;2.45;0.73;;;7.60;99.90;;;;;;5519776;25;20037;-36
2024/04/16 02:35:48;;;;;;;1.88;0.70;;;7.60;99.90;;;;;;5521695;25;20008;-35
2024/04/16 02:38:15;;;;;;;2.72;0.63;;;7.50;99.90;;;;;;5525115;25;20004;-37
2024/04/16 02:40:40;;;;;;;1.52;0.50;;;7.40;99.90;;;;;;5516509;25;20456;-37
2024/04/16 02:43:06;;;;;;;1.50;0.60;;;7.30;99.90;;;;;;5529996;25;20513;-35
2024/04/16 02:45:32;;;;;;;0.95;0.30;;;7.20;99.90;;;;;;5512608;25;19997;-36
2024/04/16 02:47:57;;;;;;;0.80;0.38;;;7.00;99.90;;;;;;5532035;25;20047;-37
2024/04/16 02:50:23;;;;;;;0.20;0.20;;;6.90;99.90;;;;;;5513427;25;20001;-37
2024/04/16 02:52:48;;;;;;;0.55;0.30;;;6.80;99.90;;;;;;5531671;25;20009;-35
2024/04/16 02:55:19;;;;;;;0.30;0.20;;;6.70;99.90;;;;;;5511110;25;20082;-38
2024/04/16 02:57:44;;;;;;;0.30;0.30;;;6.60;99.90;;;;;;5534272;25;20037;-36
2024/04/16 03:00:11;;;;;;;0.38;0.30;;;6.50;99.90;;;;;;5509248;26;19997;-37
2024/04/16 03:02:38;;;;;;;0.30;0.30;;;6.40;99.90;;;;;;5532229;25;19997;-37
2024/04/16 03:05:04;;;;;;;0.30;0.30;;;6.40;99.90;;;;;;5516135;25;20600;-35
2024/04/16 03:07:29;;;;;;;0.20;0.20;;;6.40;99.90;;;;;;5523402;25;20459;-34
2024/04/16 03:09:55;;;;;;;0.38;0.30;;;6.30;99.90;;;;;;5541183;25;20639;-35
2024/04/16 03:12:23;;;;;;;1.65;0.35;;;6.40;99.90;;;;;;5528641;25;19993;-38
2024/04/16 03:14:52;;;;;;;0.32;0.30;;;6.30;99.90;;;;;;5536738;25;20006;-36
2024/04/16 03:17:18;;;;;;;1.58;0.40;;;6.30;99.90;;;;;;5533771;25;20004;-38
2024/04/16 03:19:43;;;;;;;0.80;0.30;;;6.30;99.90;;;;;;5534227;25;20001;-35
2024/04/16 03:22:09;;;;;;;0.32;0.32;;;6.30;99.90;;;;;;5540342;25;19996;-32
2024/04/16 03:24:35;;;;;;;0.35;0.35;;;6.30;99.90;;;;;;5531063;25;20001;-37
2024/04/16 03:27:01;;;;;;;1.00;0.30;;;6.30;99.90;;;;;;5544849;25;20363;-34
2024/04/16 03:29:26;;;;;;;0.40;0.20;;;6.30;99.90;;;;;;5526162;25;20472;-35
2024/04/16 03:31:52;;;;;;;1.65;0.52;;;6.30;99.90;;;;;;5543117;25;20765;-32
2024/04/16 03:34:17;;;;;;;1.35;0.28;;;6.30;99.90;;;;;;5525413;25;20034;-39
2024/04/16 03:36:43;;;;;;;0.30;0.30;;;6.30;99.90;;;;;;5547204;25;19997;-36
2024/04/16 03:39:09;;;;;;;0.90;0.22;;;6.30;99.90;;;;;;5523438;25;19997;-38
2024/04/16 03:41:35;;;;;;;0.98;0.47;;;6.30;99.90;;;;;;5546822;25;20843;-38
2024/04/16 03:44:00;;;;;;;0.93;0.30;;;6.30;99.90;;;;;;5522900;25;20472;-38
2024/04/16 03:46:26;;;;;;;1.63;0.50;;;6.40;99.90;;;;;;5547580;25;20448;-35
2024/04/16 03:48:52;;;;;;;1.30;0.50;;;6.40;99.90;;;;;;5526412;25;20073;-37
2024/04/16 03:51:19;;;;;;;1.42;0.50;;;6.40;99.90;;;;;;5544131;25;20004;-36
2024/04/16 03:53:45;;;;;;;1.23;0.50;;;6.40;99.90;;;;;;5532529;25;20009;-37
2024/04/16 03:56:10;;;;;;;1.15;0.45;;;6.50;99.90;;;;;;5537846;25;20498;-36
2024/04/16 03:59:04;;;;;;;1.23;0.50;;;6.50;99.90;;;;;;5535643;25;20051;-38
2024/04/16 04:01:31;;;;;;;0.85;0.43;;;6.50;99.90;;;;;;5537842;25;20008;-38
2024/04/16 04:03:56;;;;;;;0.73;0.40;;;6.60;99.90;;;;;;5530195;25;20016;-39
2024/04/16 04:06:22;;;;;;;0.95;0.50;;;6.60;99.90;;;;;;5505143;25;19998;-37
2024/04/16 04:08:47;;;;;;;1.95;0.60;;;6.60;99.90;;;;;;5511607;25;20009;-38
2024/04/16 04:11:16;;;;;;;1.30;0.50;;;6.60;99.90;;;;;;5519487;25;20002;-38
2024/04/16 04:13:45;;;;;;;1.33;0.40;;;6.60;99.90;;;;;;5507591;25;20016;-37
2024/04/16 04:16:19;;;;;;;0.47;0.40;;;6.60;99.90;;;;;;5524567;25;20094;-36
2024/04/16 04:18:45;;;;;;;0.65;0.40;;;6.70;99.90;;;;;;5509632;25;20310;-33
2024/04/16 04:21:11;;;;;;;1.23;0.60;;;6.70;99.90;;;;;;5529578;25;20015;-34
2024/04/16 04:23:36;;;;;;;0.82;0.57;;;6.70;99.90;;;;;;5512168;25;19994;-37
2024/04/16 04:26:02;;;;;;;1.48;0.50;;;6.70;99.90;;;;;;5530982;25;20012;-34
2024/04/16 04:28:28;;;;;;;0.80;0.40;;;6.70;99.90;;;;;;5509721;25;20009;-37
2024/04/16 04:30:53;;;;;;;1.52;0.60;;;6.80;99.90;;;;;;5531620;25;20009;-35
2024/04/16 04:33:19;;;;;;;0.68;0.60;;;6.80;99.90;;;;;;5508945;26;20340;-36
2024/04/16 04:35:44;;;;;;;1.95;0.65;;;6.80;99.90;;;;;;5533266;25;20455;-38
2024/04/16 04:38:13;;;;;;;0.95;0.40;;;6.80;99.90;;;;;;5508907;26;20122;-36
2024/04/16 04:40:38;;;;;;;0.63;0.40;;;6.80;99.90;;;;;;5529997;25;19997;-37
2024/04/16 04:43:04;;;;;;;0.73;0.40;;;6.80;99.90;;;;;;5512808;25;20017;-36
2024/04/16 04:45:29;;;;;;;2.22;0.70;;;6.80;99.90;;;;;;5527660;25;20004;-34
2024/04/16 04:47:55;;;;;;;2.13;0.47;;;6.80;99.90;;;;;;5521840;25;20016;-36
2024/04/16 04:50:20;;;;;;;3.38;0.60;;;6.80;99.90;;;;;;5523837;25;20001;-38
2024/04/16 04:52:46;;;;;;;1.25;0.60;;;6.80;99.90;;;;;;5523163;25;20053;-38
2024/04/16 04:55:12;;;;;;;0.77;0.60;;;6.80;99.90;;;;;;5517008;25;20008;-35
2024/04/16 04:57:43;;;;;;;1.40;0.70;;;6.80;99.90;;;;;;5526906;25;19998;-37
2024/04/16 05:00:09;;;;;;;2.08;0.70;;;6.90;99.90;;;;;;5511502;25;20033;-39
2024/04/16 05:02:35;;;;;;;1.00;0.50;;;6.90;99.90;;;;;;5531523;25;20015;-38
2024/04/16 05:05:00;;;;;;;2.47;0.70;;;6.90;99.90;;;;;;5543659;25;20005;-36
2024/04/16 05:07:26;;;;;;;2.95;1.00;;;6.80;99.90;;;;;;5524854;25;19997;-38
2024/04/16 05:09:53;;;;;;;1.30;0.70;;;6.90;99.90;;;;;;5546036;25;19997;-38
2024/04/16 05:12:18;;;;;;;1.58;1.10;;;6.90;99.90;;;;;;5525365;25;19993;-37
2024/04/16 05:14:44;;;;;;;1.15;0.88;;;6.90;99.90;;;;;;5548981;25;20496;-37
2024/04/16 05:17:09;;;;;;;2.67;1.05;;;6.90;99.90;;;;;;5525142;25;20069;-36
2024/04/16 05:19:38;;;;;;;2.10;0.82;;;6.90;99.90;;;;;;5548921;25;20004;-36
2024/04/16 05:22:03;;;;;;;1.23;0.60;;;6.90;99.90;;;;;;5526375;25;20019;-36
2024/04/16 05:24:29;;;;;;;2.20;0.60;;;6.80;99.90;;;;;;5546898;25;20455;-38
2024/04/16 05:26:54;;;;;;;1.60;0.85;;;6.80;99.90;;;;;;5532193;25;20015;-37
2024/04/16 05:29:20;;;;;;;0.50;0.40;;;6.70;99.90;;;;;;5541972;25;20709;-38
2024/04/16 05:31:48;;;;;;;0.85;0.40;;;6.60;99.90;;;;;;5537775;25;20771;-36
2024/04/16 05:34:14;;;;;;;1.20;0.50;;;6.50;99.90;;;;;;5536411;25;20105;-36
2024/04/16 05:36:39;;;;;;;1.20;0.52;;;6.50;99.90;;;;;;5541491;25;20008;-38
2024/04/16 05:39:05;;;;;;;0.55;0.40;;;6.50;99.90;;;;;;5532576;25;20005;-39
2024/04/16 05:41:30;;;;;;;0.45;0.40;;;6.50;99.90;;;;;;5518148;25;20070;-34
2024/04/16 05:43:56;;;;;;;1.10;0.40;;;6.50;99.90;;;;;;5532335;25;19993;-36
2024/04/16 05:46:24;;;;;;;1.02;0.40;;;6.50;99.90;;;;;;5513475;25;19998;-36
2024/04/16 05:48:50;;;;;;;0.93;0.40;;;6.60;99.90;;;;;;5523803;25;20001;-35
2024/04/16 05:51:15;;;;;;;0.75;0.65;;;6.60;99.90;;;;;;5494905;25;20071;-39
2024/04/16 05:53:41;;;;;;;0.65;0.60;;;6.60;99.90;;;;;;5503272;25;20681;-36
2024/04/16 05:56:06;;;;;;;1.02;0.60;;;6.60;99.90;;;;;;5546952;25;20037;-38
2024/04/16 05:58:32;;;;;;;0.88;0.60;;;6.70;99.90;;;;;;5524612;25;19997;-38
2024/04/16 06:00:58;;;;;;;1.15;0.70;;;6.70;99.90;;;;;;5495461;25;20001;-38
2024/04/16 06:03:24;;;;;;;0.85;0.60;;;6.70;99.90;;;;;;5498211;25;20001;-38
2024/04/16 06:05:49;;;;;;;0.47;0.47;;;6.80;99.90;;;;;;5537178;25;20028;-37
2024/04/16 06:08:15;;;;;;;0.60;0.60;;;6.80;99.90;;;;;;5493535;25;20244;-38
2024/04/16 06:10:40;;;;;;;0.68;0.60;;;6.90;99.90;;;;;;5534519;25;20566;-36
2024/04/16 06:13:06;;;;;;;1.40;0.60;;;7.00;99.90;;;;;;5530552;25;20002;-35
2024/04/16 06:15:32;;;;;;;0.70;0.63;;;7.00;99.90;;;;;;5491390;25;19993;-38
2024/04/16 06:17:57;;;;;;;1.58;0.63;;;7.00;99.90;;;;;;5508952;25;20004;-36
2024/04/16 06:20:23;;;;;;;2.03;0.88;;;7.10;99.90;;;;;;5503178;25;20070;-35
2024/04/16 06:22:48;;;;;;;1.02;0.85;;;7.20;99.90;;;;;;5481629;25;20086;-39
2024/04/16 06:25:14;;;;;;;0.98;0.63;;;7.20;99.90;;;;;;5526114;25;19989;-36
2024/04/16 06:27:40;;;;;;;0.95;0.70;;;7.30;99.90;;;;;;5478419;25;20325;-37
2024/04/16 06:30:06;;;;;;;1.90;0.93;;;7.30;99.90;;;;;;5519873;25;20938;-35
2024/04/16 06:32:32;;;;;;;1.60;1.00;;;7.40;99.90;;;;;;5473739;26;20030;-36
2024/04/16 06:34:57;;;;;;;3.60;1.25;;;7.40;99.90;;;;;;5532306;25;20008;-39
2024/04/16 06:37:23;;;;;;;1.90;0.85;;;7.50;99.90;;;;;;5510517;26;19999;-38
2024/04/16 06:39:51;;;;;;;1.45;0.95;;;7.60;99.90;;;;;;5514031;25;20002;-39
2024/04/16 06:42:17;;;;;;;5.25;1.30;;;7.60;99.90;;;;;;5548543;25;20008;-36
2024/04/16 06:44:42;;;;;;;3.65;1.10;;;7.70;99.90;;;;;;5511340;25;20441;-35
2024/04/16 06:47:08;;;;;;;3.33;1.10;;;7.70;99.90;;;;;;5539791;25;19992;-36
2024/04/16 06:49:33;;;;;;;2.28;0.70;;;7.80;99.90;;;;;;5512181;25;20001;-38
2024/04/16 06:52:02;;;;;;;3.83;1.00;;;7.80;99.90;;;;;;5536110;25;20007;-37
2024/04/16 06:54:27;;;;;;;3.38;1.10;;;7.90;99.90;;;;;;5535907;25;20022;-36
2024/04/16 06:56:53;;;;;;;4.20;1.50;;;7.90;99.90;;;;;;5535012;25;20001;-38
2024/04/16 06:59:18;;;;;;;3.85;1.35;;;7.90;99.90;;;;;;5541894;25;19997;-38
2024/04/16 07:01:44;;;;;;;3.20;1.10;;;8.00;99.90;;;;;;5530610;25;20663;-34
2024/04/16 07:04:11;;;;;;;3.53;1.33;;;8.00;99.90;;;;;;5507858;25;20029;-36
2024/04/16 07:06:36;;;;;;;3.78;1.13;;;8.00;99.90;;;;;;5535591;25;20766;-35
2024/04/16 07:09:02;;;;;;;6.35;1.45;;;8.00;99.90;;;;;;5543997;25;19995;-37
2024/04/16 07:11:27;;;;;;;6.07;2.17;;;8.10;99.90;;;;;;5526172;25;20008;-38
2024/04/16 07:13:56;;;;;;;6.00;1.33;;;8.20;99.90;;;;;;5543805;25;19992;-34
2024/04/16 07:16:22;;;;;;;5.45;1.30;;;8.20;99.90;;;;;;5515359;25;20096;-35
2024/04/16 07:18:47;;;;;;;4.72;1.38;;;8.30;99.90;;;;;;5486430;26;20422;-34
2024/04/16 07:21:13;;;;;;;2.33;1.10;;;8.30;99.90;;;;;;5524904;25;20003;-38
2024/04/16 07:23:38;;;;;;;5.97;1.75;;;8.40;99.90;;;;;;5508508;25;20823;-37
2024/04/16 07:26:07;;;;;;;6.07;1.30;;;8.50;99.90;;;;;;5526538;25;20721;-38
2024/04/16 07:28:33;;;;;;;6.65;2.28;;;8.60;99.90;;;;;;5511415;25;21029;-38
2024/04/16 07:30:58;;;;;;;6.55;1.85;;;8.80;99.90;;;;;;5521957;25;20076;-38
2024/04/16 07:33:27;;;;;;;8.18;2.10;;;8.80;99.90;;;;;;5514900;25;20045;-39
2024/04/16 07:35:54;;;;;;;3.70;1.80;;;8.90;99.90;;;;;;5517277;25;20007;-37
2024/04/16 07:38:22;;;;;;;7.95;1.90;;;8.90;99.90;;;;;;5519774;25;19998;-36
2024/04/16 07:40:55;;;;;;;7.88;2.15;;;8.90;99.90;;;;;;5509733;25;20009;-38
2024/04/16 07:43:23;;;;;;;7.35;1.92;;;8.90;99.90;;;;;;5483648;25;20676;-38
2024/04/16 07:45:49;;;;;;;5.60;1.90;;;8.80;99.90;;;;;;5489385;25;19997;-36
2024/04/16 07:48:14;;;;;;;6.13;2.13;;;8.80;99.90;;;;;;5528230;25;20005;-36
2024/04/16 07:50:41;;;;;;;2.80;1.45;;;8.70;99.90;;;;;;5512155;25;20697;-39
2024/04/16 07:53:07;;;;;;;8.45;2.33;;;8.70;99.90;;;;;;5530752;25;20038;-37
2024/04/16 07:55:33;;;;;;;5.78;1.63;;;8.60;99.90;;;;;;5510768;25;20082;-35
2024/04/16 07:57:58;;;;;;;4.90;1.48;;;8.60;99.90;;;;;;5530545;25;20718;-35
2024/04/16 08:00:28;;;;;;;6.40;1.60;;;8.50;99.90;;;;;;5509207;25;20508;-38
2024/04/16 08:02:56;;;;;;;4.20;1.40;;;8.40;99.90;;;;;;5532008;25;19996;-37
2024/04/16 08:05:22;;;;;;;4.80;1.50;;;8.40;99.90;;;;;;5515034;25;20462;-38
2024/04/16 08:07:48;;;;;;;6.00;1.70;;;8.40;99.90;;;;;;5522760;25;20033;-37
2024/04/16 08:10:17;;;;;;;5.22;1.42;;;8.50;99.90;;;;;;5544521;25;20673;-37
2024/04/16 08:12:42;;;;;;;6.68;2.55;;;8.50;99.90;;;;;;5523451;25;20459;-37
2024/04/16 08:15:08;;;;;;;9.45;2.38;;;8.60;99.90;;;;;;5542477;25;20000;-35
2024/04/16 08:17:34;;;;;;;7.57;1.83;;;8.70;99.90;;;;;;5530318;25;20812;-37
2024/04/16 08:19:59;;;;;;;6.68;2.17;;;8.80;99.90;;;;;;5535145;25;19992;-37
2024/04/16 08:22:25;;;;;;;6.60;2.22;;;8.90;99.90;;;;;;5531713;25;20068;-38
2024/04/16 08:24:51;;;;;;;9.20;2.30;;;9.00;99.90;;;;;;5530447;25;20011;-38
2024/04/16 08:27:19;;;;;;;5.28;1.80;;;9.10;99.90;;;;;;5538230;25;20000;-38
2024/04/16 08:29:45;;;;;;;7.18;2.08;;;9.20;99.90;;;;;;5524737;25;19989;-37
2024/04/16 08:32:11;;;;;;;5.22;1.60;;;9.40;99.90;;;;;;5540692;25;20064;-36
2024/04/16 08:34:40;;;;;;;3.33;1.35;;;9.40;99.90;;;;;;5524817;25;20000;-37
2024/04/16 08:37:06;;;;;;;5.55;1.27;;;9.60;99.90;;;;;;5540994;25;19997;-34
2024/04/16 08:39:36;;;;;;;5.22;1.55;;;9.60;99.90;;;;;;5524608;25;19996;-37
2024/04/16 08:42:02;;;;;;;6.93;1.27;;;9.70;99.90;;;;;;5542394;25;20015;-36
2024/04/16 08:44:29;;;;;;;4.57;1.38;;;9.70;99.90;;;;;;5520406;25;19996;-36
2024/04/16 08:46:57;;;;;;;3.30;1.15;;;9.70;99.90;;;;;;5543402;25;20100;-34
2024/04/16 08:49:24;;;;;;;4.72;1.33;;;9.70;99.90;;;;;;5519155;25;20428;-37
2024/04/16 08:51:57;;;;;;;4.60;1.30;;;9.70;99.90;;;;;;5543480;25;20032;-35
2024/04/16 08:54:24;;;;;;;3.53;1.10;;;9.70;99.90;;;;;;5520123;25;20001;-33
2024/04/16 08:56:50;;;;;;;1.83;0.88;;;9.70;99.90;;;;;;5545791;25;20019;-37
2024/04/16 08:59:16;;;;;;;4.97;1.00;;;9.70;99.90;;;;;;5525419;25;20019;-37
2024/04/16 09:01:46;;;;;;;4.88;1.45;;;9.70;99.90;;;;;;5543819;25;20052;-34
2024/04/16 09:04:15;;;;;;;2.88;1.00;;;9.70;99.90;;;;;;5530158;25;20082;-36
2024/04/16 09:06:43;;;;;;;3.95;0.90;;;9.70;99.90;;;;;;5515276;25;20458;-36
2024/04/16 09:09:09;;;;;;;4.38;1.05;;;9.70;99.90;;;;;;5522032;25;20057;-37
2024/04/16 09:11:34;;;;;;;6.47;1.17;;;9.70;99.90;;;;;;5520033;25;20005;-37
2024/04/16 09:14:03;;;;;;;3.28;0.90;;;9.80;99.90;;;;;;5516210;25;20011;-37
2024/04/16 09:16:29;;;;;;;3.00;1.10;;;9.90;99.90;;;;;;5523676;25;20002;-37
2024/04/16 09:19:06;;;;;;;1.08;0.70;;;10.00;99.90;;;;;;5511869;25;20425;-38
2024/04/16 09:21:32;;;;;;;2.90;1.00;;;10.10;99.90;;;;;;5525747;25;20008;-35
2024/04/16 09:23:59;;;;;;;4.20;1.08;;;10.20;99.90;;;;;;5511977;25;20495;-38
2024/04/16 09:26:26;;;;;;;2.85;0.73;;;10.30;99.90;;;;;;5500034;25;20007;-37
2024/04/16 09:28:52;;;;;;;4.25;1.00;;;10.50;99.90;;;;;;5485914;25;20008;-38
2024/04/16 09:31:18;;;;;;;3.88;1.02;;;10.50;99.90;;;;;;5496143;25;20365;-37
2024/04/16 09:33:44;;;;;;;1.75;0.68;;;10.60;99.90;;;;;;5511614;25;20001;-36
2024/04/16 09:36:14;;;;;;;3.28;1.10;;;10.60;99.90;;;;;;5522992;25;20008;-38
2024/04/16 09:38:43;;;;;;;2.15;0.70;;;10.70;99.90;;;;;;5547543;25;20012;-36
2024/04/16 09:41:13;;;;;;;3.60;0.85;;;10.70;99.90;;;;;;5523202;25;20070;-34
2024/04/16 09:43:42;;;;;;;3.38;0.75;;;10.80;99.90;;;;;;5547684;25;20269;-36
2024/04/16 09:46:12;;;;;;;3.15;0.80;;;10.80;99.90;;;;;;5523521;25;20008;-34
2024/04/16 09:48:41;;;;;;;4.78;0.82;;;11.00;99.90;;;;;;5546558;25;19997;-38
2024/04/16 09:51:08;;;;;;;4.93;0.98;;;11.00;99.90;;;;;;5526838;25;20070;-36
2024/04/16 09:53:43;;;;;;;4.53;1.42;;;11.10;99.90;;;;;;5549573;25;20033;-37
2024/04/16 09:56:33;;;;;;;3.75;0.70;;;11.10;99.90;;;;;;5529456;25;20341;-38
2024/04/16 09:58:59;;;;;;;1.00;0.82;;;11.10;99.90;;;;;;5476449;26;20025;-38
2024/04/16 10:01:27;;;;;;;2.40;0.68;;;11.10;99.90;;;;;;5525184;25;20004;-37
2024/04/16 10:03:55;;;;;;;2.53;0.93;;;11.10;99.90;;;;;;5514016;25;20054;-38
2024/04/16 10:06:20;;;;;;;3.38;0.60;;;11.10;99.90;;;;;;5533687;25;20325;-37
2024/04/16 10:08:49;;;;;;;1.35;0.50;;;11.20;99.90;;;;;;5515323;25;20050;-37
2024/04/16 10:11:17;;;;;;;1.95;0.40;;;11.20;99.90;;;;;;5524616;25;20040;-37
2024/04/16 10:13:43;;;;;;;3.45;0.80;;;11.20;99.90;;;;;;5507294;25;20004;-36
2024/04/16 10:16:15;;;;;;;4.22;0.70;;;11.10;99.90;;;;;;5512671;25;20446;-34
2024/04/16 10:18:41;;;;;;;2.90;0.55;;;11.10;99.90;;;;;;5522102;25;20065;-38
2024/04/16 10:21:07;;;;;;;2.47;1.00;;;11.10;99.90;;;;;;5515024;25;20001;-34
2024/04/16 10:23:37;;;;;;;2.00;0.50;;;11.20;99.90;;;;;;5525471;25;20013;-38
2024/04/16 10:26:04;;;;;;;3.85;0.73;;;11.30;99.90;;;;;;5509116;25;20387;-38
2024/04/16 10:28:33;;;;;;;1.05;0.50;;;11.30;99.90;;;;;;5526357;25;20085;-35
2024/04/16 10:31:08;;;;;;;2.00;0.55;;;11.30;99.90;;;;;;5545538;25;20005;-35
2024/04/16 10:33:40;;;;;;;1.85;0.50;;;11.20;99.90;;;;;;5524718;25;20003;-37
2024/04/16 10:36:14;;;;;;;1.42;0.52;;;11.20;99.90;;;;;;5543275;25;20078;-36
2024/04/16 10:38:42;;;;;;;2.05;0.50;;;11.10;99.90;;;;;;5520584;25;20049;-36
2024/04/16 10:41:08;;;;;;;2.10;0.52;;;11.00;99.90;;;;;;5543785;25;19992;-36
2024/04/16 10:43:52;;;;;;;2.33;0.45;;;10.80;99.90;;;;;;5522294;25;20012;-40
2024/04/16 10:46:19;;;;;;;1.77;0.65;;;10.70;99.90;;;;;;5511663;25;20061;-39
2024/04/16 10:48:45;;;;;;;4.15;0.50;;;10.70;99.90;;;;;;5526566;25;20029;-38
2024/04/16 10:51:14;;;;;;;1.38;0.50;;;10.70;99.90;;;;;;5510657;26;20344;-38
2024/04/16 10:53:40;;;;;;;0.82;0.40;;;10.80;99.90;;;;;;5534296;25;19998;-39
2024/04/16 10:56:08;;;;;;;2.17;0.43;;;10.90;99.90;;;;;;5511500;26;20002;-33
2024/04/16 10:58:34;;;;;;;1.08;0.50;;;10.90;99.90;;;;;;5533168;25;20066;-35
2024/04/16 11:01:01;;;;;;;1.83;0.40;;;10.90;99.90;;;;;;5510432;25;20825;-34
2024/04/16 11:03:27;;;;;;;2.33;0.70;;;10.80;99.90;;;;;;5531101;25;19993;-39
2024/04/16 11:05:55;;;;;;;1.42;0.55;;;10.90;99.90;;;;;;5522662;25;20021;-37
2024/04/16 11:08:21;;;;;;;2.78;0.68;;;11.00;99.90;;;;;;5531769;25;20001;-35
2024/04/16 11:10:50;;;;;;;0.80;0.47;;;11.10;99.90;;;;;;5543036;25;20007;-37
2024/04/16 11:13:19;;;;;;;2.20;0.80;;;11.30;99.90;;;;;;5535523;25;19997;-38
2024/04/16 11:15:45;;;;;;;0.60;0.38;;;11.40;99.90;;;;;;5539538;25;19997;-39
2024/04/16 11:18:11;;;;;;;1.77;0.50;;;11.50;99.90;;;;;;5540985;25;19997;-37
2024/04/16 11:20:38;;;;;;;1.33;0.50;;;11.60;99.90;;;;;;5533449;25;20003;-38
2024/04/16 11:23:04;;;;;;;0.85;0.45;;;11.60;99.90;;;;;;5544399;25;20012;-37
2024/04/16 11:25:33;;;;;;;3.05;0.60;;;11.60;99.90;;;;;;5527557;25;20064;-39
2024/04/16 11:28:00;;;;;;;1.25;0.50;;;11.70;99.90;;;;;;5544292;25;19998;-39
2024/04/16 11:30:26;;;;;;;1.77;0.52;;;11.70;99.90;;;;;;5525353;25;20008;-37
2024/04/16 11:32:52;;;;;;;1.50;0.32;;;11.70;99.90;;;;;;5542619;25;20016;-36
2024/04/16 11:35:20;;;;;;;2.17;0.60;;;11.70;99.90;;;;;;5524805;25;20041;-39
2024/04/16 11:37:46;;;;;;;1.02;0.60;;;11.80;99.90;;;;;;5546088;25;19992;-38
2024/04/16 11:40:12;;;;;;;3.47;0.50;;;11.90;99.90;;;;;;5521358;25;20031;-37
2024/04/16 11:42:39;;;;;;;1.00;0.55;;;12.00;99.90;;;;;;5547324;25;20005;-38
2024/04/16 11:45:18;;;;;;;1.75;0.50;;;12.00;99.90;;;;;;5525536;25;20091;-37
2024/04/16 11:47:43;;;;;;;3.60;0.38;;;12.00;99.90;;;;;;5549098;25;20891;-38
2024/04/16 11:50:10;;;;;;;1.10;0.32;;;12.00;99.90;;;;;;5525235;25;20002;-38
2024/04/16 11:52:35;;;;;;;0.38;0.30;;;12.10;99.90;;;;;;5526425;25;19997;-36
2024/04/16 11:55:01;;;;;;;0.28;0.20;;;12.20;99.90;;;;;;5522377;25;20016;-38
2024/04/16 11:57:26;;;;;;;3.67;0.40;;;12.30;99.90;;;;;;5521994;25;20002;-37
2024/04/16 11:59:56;;;;;;;1.10;0.32;;;12.40;99.90;;;;;;5525110;25;20100;-36
2024/04/16 12:02:21;;;;;;;1.20;0.32;;;12.50;99.90;;;;;;5519693;25;20016;-37
2024/04/16 12:04:47;;;;;;;1.48;0.30;;;12.50;99.90;;;;;;5521864;25;20001;-37
2024/04/16 12:07:16;;;;;;;0.80;0.20;;;12.60;99.90;;;;;;5520257;25;20089;-34
2024/04/16 12:09:42;;;;;;;2.15;0.45;;;12.70;99.90;;;;;;5515907;25;19998;-37
2024/04/16 12:12:07;;;;;;;4.57;0.65;;;12.80;99.90;;;;;;5529436;25;20077;-34
2024/04/16 12:14:33;;;;;;;0.95;0.40;;;12.80;99.90;;;;;;5510978;25;20075;-37
2024/04/16 12:16:58;;;;;;;1.35;0.55;;;12.70;99.90;;;;;;5528103;25;20111;-37
2024/04/16 12:19:24;;;;;;;5.00;0.60;;;12.70;99.90;;;;;;5510178;25;20090;-35
2024/04/16 12:21:52;;;;;;;0.95;0.47;;;12.70;99.90;;;;;;5526961;25;19993;-36
2024/04/16 12:24:18;;;;;;;2.38;0.50;;;12.80;99.90;;;;;;5506125;26;20919;-37
2024/04/16 12:26:43;;;;;;;2.00;0.55;;;12.90;99.90;;;;;;5528390;25;20005;-38
2024/04/16 12:29:18;;;;;;;1.25;0.50;;;13.10;99.90;;;;;;5506486;25;20021;-38
2024/04/16 12:31:43;;;;;;;3.90;0.70;;;13.10;99.90;;;;;;5530770;25;20842;-38
2024/04/16 12:34:12;;;;;;;0.60;0.40;;;13.00;99.90;;;;;;5508234;26;20086;-37
2024/04/16 12:36:47;;;;;;;0.95;0.45;;;12.30;99.90;;;;;;5528189;25;19996;-37
2024/04/16 12:39:27;;;;;;;2.15;0.50;;;11.70;99.90;;;;;;5473080;26;19999;-38
2024/04/16 12:41:59;;;;;;;0.70;0.57;;;11.30;99.90;;;;;;5527473;25;20008;-36
2024/04/16 12:44:26;;;;;;;2.40;0.40;;;11.00;99.90;;;;;;5472953;26;20046;-33
2024/04/16 12:46:55;;;;;;;0.40;0.20;;;10.90;99.90;;;;;;5521124;25;20467;-38
2024/04/16 12:49:24;;;;;;;0.63;0.30;;;10.90;99.90;;;;;;5513694;25;20012;-32
2024/04/16 12:51:53;;;;;;;2.50;0.50;;;10.90;99.90;;;;;;5526390;25;20093;-32
2024/04/16 12:54:19;;;;;;;1.95;0.60;;;11.10;99.90;;;;;;5516155;25;20016;-37